createdAt,value
2022-08-03T00:00:35.155Z,97.60
2022-08-03T00:03:02.227Z,97.70
2022-08-03T00:05:29.239Z,97.90
2022-08-03T00:07:56.162Z,97.80
2022-08-03T00:10:23.176Z,97.90
2022-08-03T00:12:53.280Z,98.00
2022-08-03T00:15:20.417Z,98.10
2022-08-03T00:17:52.461Z,98.10
2022-08-03T00:20:21.925Z,98.20
2022-08-03T00:22:49.711Z,98.20
2022-08-03T00:25:16.939Z,98.30
2022-08-03T00:27:43.865Z,98.40
2022-08-03T00:30:13.313Z,98.50
2022-08-03T00:32:45.077Z,98.50
2022-08-03T00:35:25.141Z,98.60
2022-08-03T00:37:59.619Z,98.60
2022-08-03T00:40:26.938Z,98.50
2022-08-03T00:43:03.253Z,98.60
2022-08-03T00:45:34.083Z,98.70
2022-08-03T00:48:05.332Z,98.60
2022-08-03T00:50:35.330Z,98.70
2022-08-03T00:53:04.970Z,98.70
2022-08-03T00:55:32.165Z,98.70
2022-08-03T00:58:06.465Z,98.70
2022-08-03T01:00:42.053Z,98.80
2022-08-03T01:03:10.518Z,98.80
2022-08-03T01:06:19.646Z,98.90
2022-08-03T01:08:54.928Z,98.80
2022-08-03T01:12:00.134Z,98.90
2022-08-03T01:14:39.176Z,98.90
2022-08-03T01:17:21.415Z,98.90
2022-08-03T01:20:04.809Z,98.90
2022-08-03T01:22:58.883Z,99.00
2022-08-03T01:25:34.276Z,99.00
2022-08-03T01:28:17.844Z,98.90
2022-08-03T01:30:48.774Z,99.00
2022-08-03T01:33:18.423Z,99.00
2022-08-03T01:35:50.930Z,99.00
2022-08-03T01:38:48.595Z,99.00
2022-08-03T01:41:20.460Z,98.90
2022-08-03T01:43:55.331Z,99.00
2022-08-03T01:46:39.069Z,99.00
2022-08-03T01:49:10.467Z,98.60
2022-08-03T01:52:03.635Z,98.80
2022-08-03T01:54:36.643Z,98.90
2022-08-03T01:57:04.755Z,98.90
2022-08-03T01:59:34.521Z,98.90
2022-08-03T02:02:32.070Z,98.90
2022-08-03T02:04:52.629Z,99.00
2022-08-03T02:07:22.729Z,98.90
2022-08-03T02:09:52.607Z,99.00
2022-08-03T02:12:20.954Z,99.00
2022-08-03T02:14:51.779Z,99.00
2022-08-03T02:17:39.349Z,99.10
2022-08-03T02:20:08.751Z,99.10
2022-08-03T02:22:39.248Z,99.40
2022-08-03T02:25:13.565Z,99.20
2022-08-03T02:27:58.100Z,99.20
2022-08-03T02:30:38.627Z,99.20
2022-08-03T02:33:13.285Z,99.20
2022-08-03T02:35:44.354Z,99.30
2022-08-03T02:38:12.817Z,99.30
2022-08-03T02:40:42.381Z,99.40
2022-08-03T02:43:12.851Z,99.40
2022-08-03T02:45:45.734Z,99.40
2022-08-03T02:48:18.313Z,99.50
2022-08-03T02:50:46.593Z,99.50
2022-08-03T02:53:16.078Z,99.60
2022-08-03T02:55:45.900Z,99.90
2022-08-03T02:58:14.410Z,99.70
2022-08-03T03:00:44.119Z,99.70
2022-08-03T03:03:14.422Z,99.80
2022-08-03T03:05:54.775Z,99.80
2022-08-03T03:08:28.112Z,99.80
2022-08-03T03:11:03.222Z,99.90
2022-08-03T03:13:31.810Z,99.90
2022-08-03T03:16:02.606Z,99.90
2022-08-03T03:18:32.187Z,99.90
2022-08-03T03:21:01.626Z,99.90
2022-08-03T03:23:30.730Z,99.90
2022-08-03T03:26:02.337Z,99.90
2022-08-03T03:28:32.403Z,99.90
2022-08-03T03:31:00.115Z,99.90
2022-08-03T03:33:28.608Z,99.90
2022-08-03T03:35:56.278Z,99.90
2022-08-03T03:38:27.967Z,99.90
2022-08-03T03:40:57.570Z,99.90
2022-08-03T03:43:27.176Z,99.90
2022-08-03T03:45:58.053Z,99.90
2022-08-03T03:48:28.063Z,99.90
2022-08-03T03:50:57.277Z,99.90
2022-08-03T03:53:24.419Z,99.90
2022-08-03T03:55:59.639Z,99.90
2022-08-03T03:58:33.457Z,99.90
2022-08-03T04:01:01.264Z,99.90
2022-08-03T04:03:28.581Z,99.90
2022-08-03T04:06:14.451Z,99.90
2022-08-03T04:08:59.887Z,99.90
2022-08-03T04:11:31.906Z,99.90
2022-08-03T04:14:08.049Z,99.90
2022-08-03T04:16:43.850Z,99.90
2022-08-03T04:19:22.932Z,99.90
2022-08-03T04:21:57.662Z,99.90
2022-08-03T04:24:28.798Z,99.90
2022-08-03T04:26:57.383Z,99.90
2022-08-03T04:29:28.388Z,99.90
2022-08-03T04:32:00.381Z,99.90
2022-08-03T04:34:28.149Z,99.90
2022-08-03T04:37:02.147Z,99.90
2022-08-03T04:39:34.121Z,99.90
2022-08-03T04:42:08.631Z,99.90
2022-08-03T04:44:42.905Z,99.90
2022-08-03T04:47:09.908Z,99.90
2022-08-03T04:49:38.558Z,99.90
2022-08-03T04:52:10.427Z,99.90
2022-08-03T04:54:50.129Z,99.90
2022-08-03T04:57:23.157Z,99.90
2022-08-03T05:00:02.699Z,99.90
2022-08-03T05:02:33.605Z,99.90
2022-08-03T05:05:00.623Z,99.90
2022-08-03T05:07:35.378Z,99.90
2022-08-03T05:10:16.376Z,99.90
2022-08-03T05:12:48.109Z,99.90
2022-08-03T05:15:17.639Z,99.90
2022-08-03T05:17:47.193Z,99.90
2022-08-03T05:20:16.655Z,99.90
2022-08-03T05:22:45.973Z,99.90
2022-08-03T05:25:17.334Z,99.90
2022-08-03T05:27:46.881Z,99.90
2022-08-03T05:30:31.500Z,99.90
2022-08-03T05:33:04.444Z,99.90
2022-08-03T05:35:55.962Z,99.90
2022-08-03T05:38:28.667Z,99.90
2022-08-03T05:41:21.125Z,99.90
2022-08-03T05:43:47.838Z,99.90
2022-08-03T05:46:17.331Z,99.90
2022-08-03T05:48:45.458Z,99.90
2022-08-03T05:51:14.870Z,99.90
2022-08-03T05:53:43.728Z,99.90
2022-08-03T05:56:13.928Z,99.70
2022-08-03T05:58:43.409Z,99.50
2022-08-03T06:01:10.469Z,99.30
2022-08-03T06:03:37.444Z,99.20
2022-08-03T06:06:09.352Z,99.10
2022-08-03T06:08:36.431Z,98.50
2022-08-03T06:11:04.110Z,98.40
2022-08-03T06:13:31.352Z,98.30
2022-08-03T06:15:58.777Z,98.20
2022-08-03T06:18:30.383Z,98.10
2022-08-03T06:21:09.565Z,98.20
2022-08-03T06:23:54.076Z,97.90
2022-08-03T06:26:29.010Z,97.90
2022-08-03T06:28:58.179Z,97.80
2022-08-03T06:31:33.395Z,97.60
2022-08-03T06:34:34.095Z,97.40
2022-08-03T06:36:52.581Z,97.10
2022-08-03T06:39:20.266Z,96.70
2022-08-03T06:41:47.073Z,96.40
2022-08-03T06:44:14.358Z,97.20
2022-08-03T06:46:42.277Z,97.80
2022-08-03T06:49:09.198Z,98.10
2022-08-03T06:52:03.660Z,98.80
2022-08-03T06:54:25.260Z,98.40
2022-08-03T06:56:52.571Z,99.00
2022-08-03T07:00:09.251Z,99.00
2022-08-03T07:02:06.627Z,98.90
2022-08-03T07:04:33.982Z,99.90
2022-08-03T07:07:00.936Z,99.90
2022-08-03T07:09:30.235Z,99.30
2022-08-03T07:11:59.944Z,99.00
2022-08-03T07:14:27.032Z,98.80
2022-08-03T07:16:58.754Z,98.70
2022-08-03T07:19:26.117Z,98.60
2022-08-03T07:21:56.376Z,98.60
2022-08-03T07:24:29.226Z,98.30
2022-08-03T07:26:58.327Z,98.20
2022-08-03T07:29:25.339Z,98.30
2022-08-03T07:31:52.206Z,98.20
2022-08-03T07:34:19.394Z,98.20
2022-08-03T07:36:46.323Z,97.70
2022-08-03T07:39:18.046Z,97.50
2022-08-03T07:41:51.539Z,97.30
2022-08-03T07:44:19.421Z,96.90
2022-08-03T07:46:48.720Z,96.70
2022-08-03T07:49:16.224Z,96.70
2022-08-03T07:51:43.210Z,96.60
2022-08-03T07:54:10.316Z,96.30
2022-08-03T07:56:37.642Z,96.30
2022-08-03T07:59:04.716Z,96.10
2022-08-03T08:01:36.694Z,96.00
2022-08-03T08:04:06.780Z,95.70
2022-08-03T08:06:36.591Z,95.50
2022-08-03T08:09:03.631Z,95.10
2022-08-03T08:11:30.572Z,96.00
2022-08-03T08:13:57.469Z,95.50
2022-08-03T08:16:26.577Z,94.90
2022-08-03T08:18:55.986Z,94.50
2022-08-03T08:21:25.067Z,94.30
2022-08-03T08:24:18.133Z,94.20
2022-08-03T08:26:46.678Z,94.20
2022-08-03T08:29:14.283Z,94.10
2022-08-03T08:31:41.715Z,93.90
2022-08-03T08:34:09.252Z,94.10
2022-08-03T08:36:38.615Z,94.00
2022-08-03T08:39:05.953Z,93.90
2022-08-03T08:41:34.802Z,93.70
2022-08-03T08:44:02.387Z,93.60
2022-08-03T08:46:33.034Z,93.40
2022-08-03T08:49:04.852Z,93.50
2022-08-03T08:51:59.583Z,93.30
2022-08-03T08:54:31.515Z,93.20
2022-08-03T08:57:12.495Z,93.10
2022-08-03T08:59:56.987Z,92.80
2022-08-03T09:02:29.912Z,92.70
2022-08-03T09:04:58.342Z,92.50
2022-08-03T09:07:27.835Z,92.20
2022-08-03T09:10:10.565Z,92.00
2022-08-03T09:12:44.858Z,91.90
2022-08-03T09:15:28.766Z,91.80
2022-08-03T09:18:00.159Z,91.90
2022-08-03T09:20:29.616Z,91.90
2022-08-03T09:23:01.225Z,91.90
2022-08-03T09:25:36.667Z,91.70
2022-08-03T09:28:11.091Z,91.40
2022-08-03T09:30:39.845Z,91.20
2022-08-03T09:33:12.311Z,91.60
2022-08-03T09:35:54.500Z,91.50
2022-08-03T09:38:27.496Z,91.50
2022-08-03T09:41:00.436Z,91.50
2022-08-03T09:43:28.560Z,91.30
2022-08-03T09:46:07.387Z,90.80
2022-08-03T09:48:39.658Z,89.80
2022-08-03T09:51:14.496Z,90.10
2022-08-03T09:54:00.292Z,88.60
2022-08-03T09:56:44.253Z,88.20
2022-08-03T09:59:15.010Z,85.60
2022-08-03T10:01:42.395Z,86.70
2022-08-03T10:04:22.727Z,85.10
2022-08-03T10:07:30.972Z,83.90
2022-08-03T10:10:30.192Z,82.70
2022-08-03T10:12:52.777Z,82.20
2022-08-03T10:16:21.761Z,81.90
2022-08-03T10:18:11.194Z,80.70
2022-08-03T10:20:44.311Z,79.40
2022-08-03T10:23:12.201Z,78.60
2022-08-03T10:25:41.294Z,79.30
2022-08-03T10:28:19.188Z,77.20
2022-08-03T10:30:51.356Z,76.70
2022-08-03T10:33:51.417Z,74.50
2022-08-03T10:36:13.660Z,72.90
2022-08-03T10:38:57.294Z,72.60
2022-08-03T10:41:46.310Z,73.30
2022-08-03T10:44:20.355Z,71.90
2022-08-03T10:46:53.407Z,72.70
2022-08-03T10:49:34.605Z,72.00
2022-08-03T10:52:10.452Z,69.50
2022-08-03T10:55:07.497Z,69.20
2022-08-03T10:57:59.090Z,68.40
2022-08-03T11:00:30.502Z,67.60
2022-08-03T11:03:16.174Z,61.70
2022-08-03T11:05:49.678Z,65.60
2022-08-03T11:08:24.494Z,56.00
2022-08-03T11:10:58.667Z,57.30
2022-08-03T11:13:28.311Z,58.80
2022-08-03T11:16:02.257Z,58.70
2022-08-03T11:18:33.522Z,58.00
2022-08-03T11:21:04.866Z,58.20
2022-08-03T11:24:05.372Z,57.60
2022-08-03T11:26:36.491Z,57.40
2022-08-03T11:29:31.897Z,57.60
2022-08-03T11:31:59.505Z,58.00
2022-08-03T11:34:28.685Z,58.20
2022-08-03T11:37:14.812Z,57.90
2022-08-03T11:39:46.665Z,59.10
2022-08-03T11:42:22.944Z,57.90
2022-08-03T11:44:58.002Z,56.80
2022-08-03T11:47:29.709Z,55.50
2022-08-03T11:50:02.163Z,55.40
2022-08-03T11:52:35.657Z,55.20
2022-08-03T11:55:03.555Z,54.30
2022-08-03T11:59:03.379Z,55.20
2022-08-03T12:00:32.596Z,52.50
2022-08-03T12:03:03.468Z,53.60
2022-08-03T12:05:37.544Z,53.40
2022-08-03T12:08:07.356Z,53.50
2022-08-03T12:10:37.829Z,53.70
2022-08-03T12:13:56.735Z,53.10
2022-08-03T12:15:59.321Z,52.90
2022-08-03T12:18:32.787Z,51.50
2022-08-03T12:21:09.586Z,51.20
2022-08-03T12:23:41.221Z,51.60
2022-08-03T12:26:10.207Z,51.80
2022-08-03T12:28:49.791Z,52.10
2022-08-03T12:31:17.230Z,52.10
2022-08-03T12:34:08.351Z,53.00
2022-08-03T12:36:36.680Z,53.20
2022-08-03T12:39:11.899Z,52.30
2022-08-03T12:41:42.910Z,50.90
2022-08-03T12:44:12.585Z,50.50
2022-08-03T12:46:47.990Z,50.50
2022-08-03T12:49:18.793Z,50.60
2022-08-03T12:51:46.317Z,50.50
2022-08-03T12:54:17.833Z,50.00
2022-08-03T12:57:16.206Z,49.50
2022-08-03T12:59:53.251Z,49.90
2022-08-03T13:02:26.617Z,49.80
2022-08-03T13:04:54.604Z,49.10
2022-08-03T13:07:24.696Z,49.40
2022-08-03T13:09:55.947Z,49.90
2022-08-03T13:12:24.070Z,49.00
2022-08-03T13:14:58.205Z,49.60
2022-08-03T13:17:28.706Z,49.90
2022-08-03T13:19:58.427Z,49.40
2022-08-03T13:22:28.915Z,50.10
2022-08-03T13:24:57.651Z,49.00
2022-08-03T13:28:03.922Z,48.80
2022-08-03T13:30:29.729Z,48.60
2022-08-03T13:32:58.689Z,49.10
2022-08-03T13:35:26.048Z,48.70
2022-08-03T13:37:53.463Z,48.10
2022-08-03T13:40:23.825Z,48.10
2022-08-03T13:42:57.134Z,47.80
2022-08-03T13:45:27.543Z,47.80
2022-08-03T13:47:57.079Z,47.20
2022-08-03T13:50:26.514Z,47.10
2022-08-03T13:52:53.455Z,47.30
2022-08-03T13:55:20.566Z,47.10
2022-08-03T13:58:06.450Z,47.60
2022-08-03T14:00:34.661Z,47.50
2022-08-03T14:03:13.284Z,47.10
2022-08-03T14:05:43.056Z,46.90
2022-08-03T14:08:10.433Z,47.50
2022-08-03T14:10:40.049Z,47.60
2022-08-03T14:13:11.610Z,48.00
2022-08-03T14:15:39.215Z,48.00
2022-08-03T14:18:15.624Z,47.80
2022-08-03T14:20:49.986Z,47.40
2022-08-03T14:23:21.450Z,46.60
2022-08-03T14:25:51.799Z,46.80
2022-08-03T14:28:24.302Z,46.90
2022-08-03T14:30:58.775Z,47.50
2022-08-03T14:33:26.153Z,47.80
2022-08-03T14:35:53.506Z,47.70
2022-08-03T14:38:21.829Z,47.80
2022-08-03T14:40:49.763Z,47.90
2022-08-03T14:43:23.117Z,48.10
2022-08-03T14:45:53.839Z,47.10
2022-08-03T14:50:30.491Z,47.00
2022-08-03T14:51:12.136Z,47.00
2022-08-03T14:53:39.491Z,47.20
2022-08-03T14:56:10.623Z,47.50
2022-08-03T14:58:38.643Z,47.40
2022-08-03T15:02:06.399Z,46.90
2022-08-03T15:03:54.619Z,47.00
2022-08-03T15:06:27.262Z,46.70
2022-08-03T15:11:41.432Z,45.70
2022-08-03T15:14:09.539Z,45.00
2022-08-03T15:16:37.393Z,44.80
2022-08-03T15:20:05.565Z,44.80
2022-08-03T15:21:54.111Z,44.70
2022-08-03T15:24:21.281Z,43.90
2022-08-03T15:26:48.407Z,43.60
2022-08-03T15:30:05.550Z,42.20
2022-08-03T15:32:06.054Z,42.00
2022-08-03T15:34:35.817Z,42.70
2022-08-03T15:37:03.427Z,42.10
2022-08-03T15:39:59.783Z,41.70
2022-08-03T15:42:30.786Z,41.70
2022-08-03T15:44:58.078Z,41.30
2022-08-03T15:47:28.267Z,42.60
2022-08-03T15:49:55.636Z,44.20
2022-08-03T15:52:22.698Z,44.70
2022-08-03T15:54:49.800Z,44.90
2022-08-03T15:57:16.775Z,45.30
2022-08-03T15:59:43.732Z,46.00
2022-08-03T16:02:10.796Z,45.90
2022-08-03T16:04:40.774Z,46.10
2022-08-03T16:07:17.588Z,46.90
2022-08-03T16:09:47.074Z,46.90
2022-08-03T16:12:16.605Z,46.20
2022-08-03T16:14:52.773Z,46.30
2022-08-03T16:17:24.580Z,46.20
2022-08-03T16:19:55.003Z,46.20
2022-08-03T16:22:23.825Z,46.20
2022-08-03T16:24:55.049Z,46.30
2022-08-03T16:27:37.353Z,46.70
2022-08-03T16:30:15.931Z,46.70
2022-08-03T16:32:44.784Z,46.80
2022-08-03T16:35:19.742Z,47.20
2022-08-03T16:37:56.833Z,47.50
2022-08-03T16:40:25.767Z,47.50
2022-08-03T16:42:52.706Z,47.60
2022-08-03T16:45:26.042Z,48.10
2022-08-03T16:48:01.640Z,48.40
2022-08-03T16:50:34.113Z,48.60
2022-08-03T16:53:06.316Z,48.90
2022-08-03T16:55:52.171Z,49.30
2022-08-03T16:58:41.661Z,49.80
2022-08-03T17:01:21.472Z,50.20
2022-08-03T17:04:02.046Z,51.00
2022-08-03T17:06:35.867Z,50.60
2022-08-03T17:09:08.710Z,51.80
2022-08-03T17:11:38.920Z,51.40
2022-08-03T17:14:12.175Z,51.50
2022-08-03T17:16:39.730Z,51.50
2022-08-03T17:19:23.405Z,51.70
2022-08-03T17:22:04.196Z,52.10
2022-08-03T17:24:41.431Z,52.40
2022-08-03T17:28:41.934Z,52.20
2022-08-03T17:30:07.681Z,52.30
2022-08-03T17:32:42.275Z,51.90
2022-08-03T17:35:10.464Z,51.50
2022-08-03T17:37:57.698Z,51.50
2022-08-03T17:40:29.305Z,51.70
2022-08-03T17:42:59.299Z,51.80
2022-08-03T17:45:26.303Z,52.00
2022-08-03T17:48:18.639Z,52.30
2022-08-03T17:50:56.157Z,52.40
2022-08-03T17:53:36.331Z,52.30
2022-08-03T17:59:16.651Z,53.00
2022-08-03T18:02:34.679Z,53.20
2022-08-03T18:05:16.421Z,53.60
2022-08-03T18:07:59.532Z,53.90
2022-08-03T18:10:34.819Z,54.30
2022-08-03T18:13:14.128Z,54.90
2022-08-03T18:15:51.905Z,55.40
2022-08-03T18:18:32.242Z,56.00
2022-08-03T18:21:04.589Z,56.50
2022-08-03T18:23:37.050Z,57.20
2022-08-03T18:26:10.691Z,57.80
2022-08-03T18:28:39.714Z,58.20
2022-08-03T18:31:12.560Z,58.30
2022-08-03T18:34:20.338Z,58.50
2022-08-03T18:36:31.998Z,58.80
2022-08-03T18:39:01.771Z,59.10
2022-08-03T18:41:34.926Z,59.50
2022-08-03T18:47:16.248Z,60.10
2022-08-03T18:50:07.912Z,60.60
2022-08-03T18:52:53.299Z,60.60
2022-08-03T18:55:33.484Z,61.20
2022-08-03T18:58:15.860Z,61.40
2022-08-03T19:01:00.854Z,62.50
2022-08-03T19:03:41.438Z,64.10
2022-08-03T19:06:22.673Z,69.10
2022-08-03T19:08:55.762Z,73.60
2022-08-03T19:12:12.592Z,76.60
2022-08-03T19:14:52.454Z,79.20
2022-08-03T19:20:13.372Z,82.60
2022-08-03T19:22:45.849Z,83.80
2022-08-03T19:25:15.486Z,85.00
2022-08-03T19:27:45.405Z,86.00
2022-08-03T19:30:35.672Z,86.60
2022-08-03T19:33:11.094Z,87.20
2022-08-03T19:35:55.402Z,87.70
2022-08-03T19:38:28.335Z,88.50
2022-08-03T19:41:03.545Z,89.00
2022-08-03T19:43:49.469Z,89.40
2022-08-03T19:46:22.288Z,90.20
2022-08-03T19:49:15.360Z,90.00
2022-08-03T19:52:01.827Z,90.20
2022-08-03T19:54:53.137Z,90.50
2022-08-03T19:57:27.236Z,90.70
2022-08-03T19:59:56.387Z,91.00
2022-08-03T20:02:26.171Z,91.30
2022-08-03T20:04:59.917Z,91.40
2022-08-03T20:07:29.207Z,91.60
2022-08-03T20:09:57.679Z,91.80
2022-08-03T20:12:34.386Z,91.90
2022-08-03T20:15:09.100Z,92.00
2022-08-03T20:17:56.884Z,92.10
2022-08-03T20:20:35.683Z,92.20
2022-08-03T20:23:24.057Z,92.20
2022-08-03T20:25:58.819Z,92.20
2022-08-03T20:28:32.208Z,92.40
2022-08-03T20:30:59.910Z,92.40
2022-08-03T20:33:46.187Z,92.50
2022-08-03T20:36:15.919Z,92.60
2022-08-03T20:38:47.717Z,92.60
2022-08-03T20:41:16.824Z,92.60
2022-08-03T20:43:49.427Z,92.60
2022-08-03T20:46:31.032Z,92.80
2022-08-03T20:49:04.765Z,92.80
2022-08-03T20:51:49.681Z,92.90
2022-08-03T20:54:30.600Z,92.90
2022-08-03T20:57:00.653Z,92.90
2022-08-03T20:59:46.903Z,92.80
2022-08-03T21:05:08.921Z,92.80
2022-08-03T21:08:04.951Z,92.60
2022-08-03T21:10:35.862Z,92.30
2022-08-03T21:12:59.142Z,59.80
2022-08-03T21:13:04.252Z,52.70
2022-08-03T21:13:08.995Z,80.90
2022-08-03T21:13:12.319Z,92.90
2022-08-03T21:13:18.478Z,92.30
2022-08-03T21:16:06.836Z,92.20
2022-08-03T21:18:49.773Z,92.00
2022-08-03T21:21:19.031Z,91.80
2022-08-03T21:23:49.884Z,91.80
2022-08-03T21:26:27.735Z,91.80
2022-08-03T21:28:57.715Z,91.80
2022-08-03T21:31:29.385Z,91.90
2022-08-03T21:34:02.961Z,91.90
2022-08-03T21:36:37.959Z,91.80
2022-08-03T21:39:07.794Z,91.70
2022-08-03T21:41:38.495Z,91.70
2022-08-03T21:44:06.784Z,91.60
2022-08-03T21:46:40.323Z,91.60
2022-08-03T21:49:52.108Z,91.70
2022-08-03T21:51:59.454Z,91.60
2022-08-03T21:54:36.422Z,91.50
2022-08-03T21:57:20.366Z,91.50
2022-08-03T21:59:57.026Z,91.50
2022-08-03T22:02:31.427Z,91.60
2022-08-03T22:05:05.085Z,91.60
2022-08-03T22:07:36.670Z,91.70
2022-08-03T22:10:06.528Z,91.80
2022-08-03T22:12:34.490Z,91.70
2022-08-03T22:15:04.636Z,91.70
2022-08-03T22:17:55.384Z,91.70
2022-08-03T22:20:24.112Z,91.60
2022-08-03T22:22:56.117Z,91.60
2022-08-03T22:25:33.745Z,91.70
2022-08-03T22:28:09.397Z,91.70
2022-08-03T22:30:37.713Z,91.80
2022-08-03T22:33:11.371Z,91.90
2022-08-03T22:35:51.488Z,91.90
2022-08-03T22:38:18.873Z,91.90
2022-08-03T22:40:51.151Z,92.00
2022-08-03T22:43:25.234Z,92.10
2022-08-03T22:46:11.196Z,92.20
2022-08-03T22:48:40.721Z,92.20
2022-08-03T22:51:11.556Z,92.20
2022-08-03T22:53:40.350Z,92.30
2022-08-03T22:56:10.203Z,92.20
2022-08-03T22:58:37.223Z,92.30
2022-08-03T23:01:07.529Z,92.30
2022-08-03T23:04:00.285Z,92.30
2022-08-03T23:06:25.555Z,92.40
2022-08-03T23:08:53.402Z,92.20
2022-08-03T23:11:21.627Z,92.30
2022-08-03T23:13:54.143Z,92.40
2022-08-03T23:16:29.102Z,92.40
2022-08-03T23:19:00.094Z,92.50
2022-08-03T23:21:53.327Z,92.50
2022-08-03T23:24:30.247Z,92.50
2022-08-03T23:26:58.390Z,92.60
2022-08-03T23:29:28.806Z,92.60
2022-08-03T23:31:57.484Z,92.70
2022-08-03T23:34:43.486Z,92.80
2022-08-03T23:37:14.560Z,92.90
2022-08-03T23:39:45.330Z,93.00
2022-08-03T23:42:15.092Z,93.40
2022-08-03T23:44:43.702Z,93.20
2022-08-03T23:47:14.333Z,93.40
2022-08-03T23:49:43.944Z,93.60
2022-08-03T23:52:15.960Z,93.70
2022-08-03T23:55:16.225Z,93.80
2022-08-03T23:57:49.213Z,94.10
